createdAt,value
2019-01-18T00:01:21.345Z,97.60
2019-01-18T00:03:49.173Z,97.40
2019-01-18T00:06:16.921Z,97.30
2019-01-18T00:08:44.656Z,97.40
2019-01-18T00:11:12.780Z,97.30
2019-01-18T00:13:40.513Z,97.40
2019-01-18T00:16:08.197Z,97.50
2019-01-18T00:18:35.918Z,97.60
2019-01-18T00:21:03.612Z,97.70
2019-01-18T00:23:31.333Z,97.90
2019-01-18T00:25:59.089Z,98.00
2019-01-18T00:28:26.829Z,98.20
2019-01-18T00:30:54.525Z,98.30
2019-01-18T00:33:22.329Z,98.20
2019-01-18T00:35:50.025Z,98.20
2019-01-18T00:38:17.745Z,98.30
2019-01-18T00:40:45.456Z,98.20
2019-01-18T00:43:13.178Z,98.20
2019-01-18T00:45:40.895Z,98.10
2019-01-18T00:48:08.588Z,98.00
2019-01-18T00:50:36.305Z,97.90
2019-01-18T00:53:04.005Z,98.00
2019-01-18T00:55:31.725Z,98.00
2019-01-18T00:57:59.425Z,98.40
2019-01-18T01:00:27.772Z,97.50
2019-01-18T01:02:55.537Z,97.30
2019-01-18T01:05:23.396Z,96.80
2019-01-18T01:07:51.096Z,96.50
2019-01-18T01:10:18.808Z,96.50
2019-01-18T01:12:46.488Z,96.80
2019-01-18T01:15:15.234Z,96.90
2019-01-18T01:17:43.070Z,97.30
2019-01-18T01:20:11.969Z,97.20
2019-01-18T01:22:39.688Z,97.20
2019-01-18T01:25:07.573Z,97.50
2019-01-18T01:27:35.269Z,97.40
2019-01-18T01:30:04.953Z,97.30
2019-01-18T01:32:32.661Z,97.20
2019-01-18T01:35:00.380Z,97.20
2019-01-18T01:37:28.068Z,97.20
2019-01-18T01:39:55.794Z,97.10
2019-01-18T01:42:23.485Z,97.10
2019-01-18T01:44:51.198Z,96.90
2019-01-18T01:47:18.902Z,96.60
2019-01-18T01:49:46.622Z,96.20
2019-01-18T01:52:14.332Z,95.70
2019-01-18T01:54:42.133Z,95.60
2019-01-18T01:57:09.849Z,95.90
2019-01-18T01:59:37.549Z,95.60
2019-01-18T02:02:05.284Z,95.60
2019-01-18T02:04:32.981Z,95.60
2019-01-18T02:07:00.693Z,95.60
2019-01-18T02:09:28.388Z,95.70
2019-01-18T02:11:56.106Z,95.90
2019-01-18T02:14:23.807Z,96.10
2019-01-18T02:16:51.520Z,96.10
2019-01-18T02:19:19.241Z,96.10
2019-01-18T02:21:46.977Z,96.20
2019-01-18T02:24:14.677Z,96.20
2019-01-18T02:26:42.443Z,96.80
2019-01-18T02:29:10.141Z,97.10
2019-01-18T02:31:37.873Z,97.40
2019-01-18T02:34:05.584Z,97.40
2019-01-18T02:36:33.413Z,97.50
2019-01-18T02:39:01.122Z,97.40
2019-01-18T02:41:28.842Z,97.60
2019-01-18T02:43:56.538Z,97.50
2019-01-18T02:46:24.261Z,97.40
2019-01-18T02:48:51.969Z,97.40
2019-01-18T02:51:19.712Z,97.40
2019-01-18T02:53:47.421Z,97.40
2019-01-18T02:56:15.117Z,97.30
2019-01-18T02:58:42.833Z,97.60
2019-01-18T03:01:10.524Z,97.80
2019-01-18T03:03:38.144Z,97.80
2019-01-18T03:06:05.836Z,97.80
2019-01-18T03:08:33.532Z,98.10
2019-01-18T03:11:01.274Z,98.30
2019-01-18T03:13:28.974Z,98.20
2019-01-18T03:15:56.678Z,98.60
2019-01-18T03:18:24.418Z,98.80
2019-01-18T03:20:52.174Z,98.80
2019-01-18T03:23:19.888Z,98.90
2019-01-18T03:25:47.730Z,98.80
2019-01-18T03:28:15.428Z,98.60
2019-01-18T03:30:43.166Z,98.30
2019-01-18T03:33:10.990Z,98.60
2019-01-18T03:35:38.698Z,98.50
2019-01-18T03:38:06.393Z,98.50
2019-01-18T03:40:34.454Z,98.50
2019-01-18T03:43:02.158Z,98.10
2019-01-18T03:45:29.862Z,98.00
2019-01-18T03:47:57.582Z,98.40
2019-01-18T03:50:26.189Z,98.60
2019-01-18T03:52:53.914Z,99.00
2019-01-18T03:55:21.681Z,99.40
2019-01-18T03:57:49.363Z,98.80
2019-01-18T04:00:26.179Z,98.90
2019-01-18T04:02:54.516Z,99.10
2019-01-18T04:05:22.486Z,98.90
2019-01-18T04:07:50.180Z,99.10
2019-01-18T04:10:18.234Z,99.00
2019-01-18T04:12:45.948Z,99.00
2019-01-18T04:15:15.041Z,98.70
2019-01-18T04:17:42.741Z,98.80
2019-01-18T04:20:11.094Z,98.70
2019-01-18T04:22:38.810Z,98.80
2019-01-18T04:25:08.247Z,99.00
2019-01-18T04:27:36.002Z,99.10
2019-01-18T04:30:04.713Z,99.40
2019-01-18T04:32:32.414Z,99.50
2019-01-18T04:35:00.286Z,99.50
2019-01-18T04:37:27.944Z,99.50
2019-01-18T04:39:55.660Z,99.20
2019-01-18T04:42:23.374Z,99.10
2019-01-18T04:44:51.071Z,99.30
2019-01-18T04:47:18.781Z,99.40
2019-01-18T04:49:46.474Z,99.20
2019-01-18T04:52:14.188Z,99.10
2019-01-18T04:54:41.890Z,99.30
2019-01-18T04:57:09.593Z,99.00
2019-01-18T04:59:37.305Z,99.20
2019-01-18T05:02:04.997Z,99.30
2019-01-18T05:04:32.716Z,99.40
2019-01-18T05:07:00.422Z,99.50
2019-01-18T05:09:28.171Z,99.50
2019-01-18T05:11:55.945Z,99.30
2019-01-18T05:14:23.589Z,99.00
2019-01-18T05:16:51.277Z,99.00
2019-01-18T05:19:18.993Z,99.40
2019-01-18T05:21:46.688Z,99.40
2019-01-18T05:24:14.396Z,99.60
2019-01-18T05:26:42.110Z,99.30
2019-01-18T05:29:09.869Z,99.00
2019-01-18T05:31:37.586Z,99.20
2019-01-18T05:34:05.287Z,99.10
2019-01-18T05:36:32.998Z,99.20
2019-01-18T05:39:00.738Z,99.00
2019-01-18T05:41:28.479Z,98.70
2019-01-18T05:43:56.161Z,98.80
2019-01-18T05:46:23.892Z,98.90
2019-01-18T05:48:51.573Z,99.00
2019-01-18T05:51:19.290Z,99.00
2019-01-18T05:53:47.202Z,98.50
2019-01-18T05:56:14.910Z,98.20
2019-01-18T05:58:42.601Z,97.60
2019-01-18T06:01:11.793Z,97.60
2019-01-18T06:03:39.490Z,97.30
2019-01-18T06:06:07.197Z,97.20
2019-01-18T06:08:34.888Z,97.20
2019-01-18T06:11:02.602Z,97.40
2019-01-18T06:13:30.324Z,97.40
2019-01-18T06:15:58.054Z,97.40
2019-01-18T06:18:25.755Z,97.30
2019-01-18T06:20:53.470Z,97.30
2019-01-18T06:23:21.170Z,97.20
2019-01-18T06:25:48.886Z,97.30
2019-01-18T06:28:16.605Z,97.60
2019-01-18T06:30:44.307Z,97.80
2019-01-18T06:33:12.025Z,98.00
2019-01-18T06:35:39.727Z,98.30
2019-01-18T06:38:07.442Z,98.20
2019-01-18T06:40:35.136Z,98.10
2019-01-18T06:43:02.869Z,98.10
2019-01-18T06:45:31.095Z,98.20
2019-01-18T06:47:58.800Z,98.00
2019-01-18T06:50:26.501Z,98.00
2019-01-18T06:52:54.225Z,98.00
2019-01-18T06:55:21.936Z,98.00
2019-01-18T06:57:49.663Z,98.10
2019-01-18T07:00:28.544Z,98.40
2019-01-18T07:02:56.281Z,98.50
2019-01-18T07:05:23.977Z,98.90
2019-01-18T07:07:51.676Z,99.50
2019-01-18T07:10:20.882Z,99.70
2019-01-18T07:12:48.882Z,99.90
2019-01-18T07:15:16.692Z,99.90
2019-01-18T07:17:44.415Z,99.90
2019-01-18T07:20:13.465Z,99.90
2019-01-18T07:22:41.219Z,99.90
2019-01-18T07:25:12.277Z,99.90
2019-01-18T07:27:40.133Z,99.90
2019-01-18T07:30:14.287Z,99.60
2019-01-18T07:32:42.024Z,99.40
2019-01-18T07:35:09.742Z,99.30
2019-01-18T07:37:37.489Z,99.30
2019-01-18T07:40:06.006Z,99.30
2019-01-18T07:42:33.734Z,99.10
2019-01-18T07:45:01.488Z,98.90
2019-01-18T07:47:29.186Z,98.70
2019-01-18T07:49:56.932Z,98.40
2019-01-18T07:52:24.636Z,98.40
2019-01-18T07:54:52.373Z,98.30
2019-01-18T07:57:20.091Z,98.10
2019-01-18T07:59:48.553Z,98.10
2019-01-18T08:02:16.290Z,98.10
2019-01-18T08:04:44.028Z,98.00
2019-01-18T08:07:11.745Z,98.10
2019-01-18T08:09:39.493Z,97.90
2019-01-18T08:12:07.122Z,97.90
2019-01-18T08:14:35.090Z,97.60
2019-01-18T08:17:02.823Z,97.90
2019-01-18T08:19:30.575Z,98.40
2019-01-18T08:21:58.310Z,98.60
2019-01-18T08:24:26.102Z,98.60
2019-01-18T08:26:53.841Z,99.00
2019-01-18T08:29:21.573Z,99.20
2019-01-18T08:31:49.286Z,99.40
2019-01-18T08:34:17.016Z,99.30
2019-01-18T08:36:44.741Z,99.50
2019-01-18T08:39:12.468Z,99.40
2019-01-18T08:41:40.170Z,99.20
2019-01-18T08:44:07.906Z,99.00
2019-01-18T08:46:36.030Z,99.30
2019-01-18T08:49:03.772Z,99.00
2019-01-18T08:51:31.492Z,98.80
2019-01-18T08:53:59.228Z,98.70
2019-01-18T08:56:26.953Z,98.40
2019-01-18T08:58:54.701Z,98.20
2019-01-18T09:01:22.478Z,98.20
2019-01-18T09:03:50.222Z,98.10
2019-01-18T09:06:17.955Z,98.20
2019-01-18T09:08:45.664Z,98.40
2019-01-18T09:11:13.389Z,98.20
2019-01-18T09:13:41.092Z,98.20
2019-01-18T09:16:08.829Z,98.00
2019-01-18T09:18:36.629Z,97.90
2019-01-18T09:21:04.369Z,97.70
2019-01-18T09:23:32.071Z,97.50
2019-01-18T09:25:59.823Z,97.80
2019-01-18T09:28:27.601Z,97.40
2019-01-18T09:30:55.334Z,97.40
2019-01-18T09:33:23.038Z,97.10
2019-01-18T09:35:50.881Z,96.90
2019-01-18T09:38:18.585Z,96.80
2019-01-18T09:40:46.365Z,96.60
2019-01-18T09:43:14.071Z,96.50
2019-01-18T09:45:41.820Z,96.50
2019-01-18T09:48:10.190Z,96.50
2019-01-18T09:50:37.937Z,96.50
2019-01-18T09:53:07.378Z,96.20
2019-01-18T09:55:35.449Z,96.30
2019-01-18T09:58:03.337Z,96.30
2019-01-18T10:00:32.971Z,96.30
2019-01-18T10:03:01.063Z,96.10
2019-01-18T10:05:29.695Z,95.90
2019-01-18T10:07:57.406Z,96.00
2019-01-18T10:10:25.136Z,96.00
2019-01-18T10:12:52.891Z,95.90
2019-01-18T10:15:41.166Z,95.70
2019-01-18T10:18:08.949Z,95.60
2019-01-18T10:20:36.733Z,95.40
2019-01-18T10:23:04.607Z,96.00
2019-01-18T10:25:32.328Z,95.80
2019-01-18T10:28:00.572Z,95.80
2019-01-18T10:30:28.321Z,95.60
2019-01-18T10:32:56.098Z,95.60
2019-01-18T10:35:23.855Z,95.20
2019-01-18T10:37:51.581Z,95.40
2019-01-18T10:40:19.365Z,95.50
2019-01-18T10:42:47.629Z,95.70
2019-01-18T10:45:15.341Z,95.70
2019-01-18T10:47:43.109Z,95.80
2019-01-18T10:50:15.754Z,95.90
2019-01-18T10:52:43.530Z,95.80
2019-01-18T10:55:11.277Z,96.00
2019-01-18T10:57:39.010Z,96.10
2019-01-18T11:00:12.785Z,96.20
2019-01-18T11:02:40.497Z,95.70
2019-01-18T11:05:08.741Z,95.60
2019-01-18T11:07:36.635Z,95.80
2019-01-18T11:10:05.265Z,95.80
2019-01-18T11:12:32.981Z,95.80
2019-01-18T11:15:00.753Z,95.50
2019-01-18T11:17:28.481Z,95.30
2019-01-18T11:19:56.231Z,95.10
2019-01-18T11:22:23.962Z,95.20
2019-01-18T11:24:51.737Z,95.20
2019-01-18T11:27:19.468Z,95.30
2019-01-18T11:29:47.214Z,95.40
2019-01-18T11:32:14.959Z,95.20
2019-01-18T11:34:42.678Z,95.00
2019-01-18T11:37:10.485Z,95.10
2019-01-18T11:39:38.213Z,95.00
2019-01-18T11:42:06.010Z,95.20
2019-01-18T11:44:33.739Z,95.10
2019-01-18T11:47:01.488Z,95.60
2019-01-18T11:49:29.213Z,95.90
2019-01-18T11:51:57.107Z,96.10
2019-01-18T11:54:24.833Z,96.30
2019-01-18T11:56:52.528Z,96.20
2019-01-18T11:59:20.260Z,96.10
2019-01-18T12:01:47.961Z,96.40
2019-01-18T12:04:15.685Z,95.90
2019-01-18T12:06:43.384Z,95.10
2019-01-18T12:09:18.829Z,94.60
2019-01-18T12:11:46.536Z,94.40
2019-01-18T12:14:14.247Z,94.20
2019-01-18T12:16:41.980Z,94.00
2019-01-18T12:19:09.706Z,93.80
2019-01-18T12:21:37.417Z,93.20
2019-01-18T12:24:06.417Z,92.90
2019-01-18T12:26:34.163Z,92.70
2019-01-18T12:29:01.925Z,93.00
2019-01-18T12:31:29.761Z,92.50
2019-01-18T12:33:57.482Z,92.50
2019-01-18T12:36:25.181Z,93.70
2019-01-18T12:38:53.133Z,93.30
2019-01-18T12:41:20.805Z,92.90
2019-01-18T12:43:48.690Z,92.40
2019-01-18T12:46:16.507Z,92.00
2019-01-18T12:48:44.214Z,91.90
2019-01-18T12:51:11.921Z,91.60
2019-01-18T12:53:39.685Z,91.40
2019-01-18T12:56:07.538Z,91.00
2019-01-18T12:58:35.369Z,90.90
2019-01-18T13:01:03.198Z,90.40
2019-01-18T13:03:30.897Z,90.90
2019-01-18T13:05:58.617Z,91.30
2019-01-18T13:08:26.313Z,91.20
2019-01-18T13:10:54.031Z,91.80
2019-01-18T13:13:21.721Z,91.60
2019-01-18T13:16:28.737Z,90.80
2019-01-18T13:18:59.259Z,91.50
2019-01-18T13:21:26.998Z,91.20
2019-01-18T13:23:54.705Z,91.60
2019-01-18T13:26:22.429Z,91.10
2019-01-18T13:28:50.157Z,91.00
2019-01-18T13:31:17.877Z,91.50
2019-01-18T13:33:45.582Z,91.70
2019-01-18T13:36:15.077Z,91.20
2019-01-18T13:38:42.834Z,90.60
2019-01-18T13:41:10.546Z,90.60
2019-01-18T13:43:38.232Z,90.80
2019-01-18T13:46:06.030Z,90.60
2019-01-18T13:48:33.733Z,90.40
2019-01-18T13:51:01.462Z,90.50
2019-01-18T13:53:29.173Z,90.30
2019-01-18T13:55:56.906Z,90.10
2019-01-18T13:58:24.605Z,90.10
2019-01-18T14:00:52.323Z,89.00
2019-01-18T14:03:20.018Z,86.80
2019-01-18T14:05:47.757Z,86.10
2019-01-18T14:08:15.461Z,86.40
2019-01-18T14:10:43.207Z,86.90
2019-01-18T14:13:10.889Z,86.10
2019-01-18T14:15:38.633Z,86.20
2019-01-18T14:18:06.361Z,86.50
2019-01-18T14:20:34.081Z,86.20
2019-01-18T14:23:01.810Z,87.20
2019-01-18T14:25:29.548Z,87.20
2019-01-18T14:27:57.269Z,87.00
2019-01-18T14:30:25.232Z,87.40
2019-01-18T14:32:55.508Z,86.70
2019-01-18T14:35:22.757Z,88.30
2019-01-18T14:37:50.544Z,88.50
2019-01-18T14:40:18.337Z,88.70
2019-01-18T14:42:46.112Z,88.40
2019-01-18T14:45:16.929Z,88.90
2019-01-18T14:47:44.692Z,89.50
2019-01-18T14:50:15.500Z,90.10
2019-01-18T14:52:43.418Z,90.10
2019-01-18T14:55:11.249Z,89.90
2019-01-18T14:57:39.030Z,90.30
2019-01-18T15:00:11.529Z,90.70
2019-01-18T15:02:39.277Z,91.20
2019-01-18T15:05:08.302Z,91.50
2019-01-18T15:07:36.061Z,91.90
2019-01-18T15:10:05.228Z,91.90
2019-01-18T15:12:33.105Z,92.00
2019-01-18T15:15:00.801Z,92.10
2019-01-18T15:17:34.511Z,92.20
2019-01-18T15:19:58.073Z,92.70
2019-01-18T15:22:25.769Z,92.60
2019-01-18T15:24:53.476Z,92.80
2019-01-18T15:27:21.193Z,93.10
2019-01-18T15:29:48.937Z,93.10
2019-01-18T15:32:16.662Z,92.90
2019-01-18T15:34:44.373Z,92.80
2019-01-18T15:37:12.099Z,93.10
2019-01-18T15:39:39.793Z,93.20
2019-01-18T15:42:07.957Z,93.10
2019-01-18T15:44:35.749Z,93.00
2019-01-18T15:47:03.447Z,93.00
2019-01-18T15:49:31.154Z,92.90
2019-01-18T15:51:58.873Z,93.00
2019-01-18T15:54:26.589Z,93.00
2019-01-18T15:56:54.300Z,93.10
2019-01-18T15:59:22.017Z,93.10
2019-01-18T16:01:49.736Z,93.30
2019-01-18T16:04:17.441Z,93.10
2019-01-18T16:06:45.170Z,93.30
2019-01-18T16:09:12.889Z,93.40
2019-01-18T16:11:41.511Z,93.40
2019-01-18T16:14:09.225Z,93.40
2019-01-18T16:16:44.928Z,93.40
2019-01-18T16:19:12.641Z,93.60
2019-01-18T16:21:40.356Z,93.70
2019-01-18T16:24:08.085Z,93.90
2019-01-18T16:26:35.853Z,93.80
2019-01-18T16:29:03.554Z,93.70
2019-01-18T16:31:31.325Z,93.60
2019-01-18T16:33:59.058Z,93.40
2019-01-18T16:36:26.758Z,93.30
2019-01-18T16:38:54.478Z,93.40
2019-01-18T16:41:22.173Z,93.20
2019-01-18T16:43:49.901Z,93.30
2019-01-18T16:46:17.685Z,93.30
2019-01-18T16:48:45.475Z,93.20
2019-01-18T16:51:13.241Z,93.00
2019-01-18T16:53:40.945Z,93.00
2019-01-18T16:56:08.681Z,93.00
2019-01-18T16:58:37.377Z,93.00
2019-01-18T17:01:06.754Z,93.00
2019-01-18T17:03:34.454Z,93.20
2019-01-18T17:06:02.177Z,93.10
2019-01-18T17:08:30.917Z,93.20
2019-01-18T17:10:58.652Z,93.30
2019-01-18T17:13:28.807Z,93.30
2019-01-18T17:15:56.504Z,93.30
2019-01-18T17:18:24.609Z,93.40
2019-01-18T17:20:52.326Z,93.30
2019-01-18T17:23:20.025Z,93.30
2019-01-18T17:25:47.758Z,93.30
2019-01-18T17:28:15.501Z,93.20
2019-01-18T17:30:43.397Z,93.10
2019-01-18T17:33:11.058Z,93.00
2019-01-18T17:35:41.805Z,93.00
2019-01-18T17:38:31.530Z,93.10
2019-01-18T17:41:15.925Z,93.20
2019-01-18T17:44:14.893Z,93.20
2019-01-18T17:47:17.724Z,93.40
2019-01-18T17:50:41.962Z,93.80
2019-01-18T17:53:37.313Z,93.90
2019-01-18T17:56:48.773Z,94.10
2019-01-18T17:59:45.243Z,94.10
2019-01-18T18:03:00.073Z,94.00
2019-01-18T18:06:01.800Z,93.90
2019-01-18T18:08:59.177Z,94.10
2019-01-18T18:12:07.240Z,94.30
2019-01-18T18:15:01.365Z,94.40
2019-01-18T18:17:47.297Z,94.40
2019-01-18T18:20:55.720Z,94.30
2019-01-18T18:24:14.355Z,94.30
2019-01-18T18:27:44.250Z,94.20
2019-01-18T18:30:45.933Z,94.10
2019-01-18T18:34:13.468Z,94.40
2019-01-18T18:36:57.244Z,94.40
2019-01-18T18:39:57.037Z,94.40
2019-01-18T18:43:06.017Z,94.40
2019-01-18T18:46:14.168Z,94.30
2019-01-18T18:49:32.652Z,94.40
2019-01-18T18:52:38.253Z,94.30
2019-01-18T18:55:47.748Z,94.10
2019-01-18T18:58:27.419Z,94.20
2019-01-18T19:01:24.693Z,94.40
2019-01-18T19:04:21.439Z,94.30
2019-01-18T19:07:21.960Z,94.70
2019-01-18T19:10:43.384Z,94.40
2019-01-18T19:13:33.417Z,94.50
2019-01-18T19:16:54.854Z,94.70
2019-01-18T19:19:59.241Z,94.70
2019-01-18T19:22:45.781Z,94.70
2019-01-18T19:26:09.605Z,94.80
2019-01-18T19:29:16.177Z,94.90
2019-01-18T19:32:07.405Z,95.00
2019-01-18T19:35:06.776Z,94.90
2019-01-18T19:38:15.917Z,94.90
2019-01-18T19:41:16.182Z,94.90
2019-01-18T19:44:09.878Z,94.90
2019-01-18T19:47:10.972Z,95.00
2019-01-18T19:49:58.690Z,94.90
2019-01-18T19:52:51.460Z,95.20
2019-01-18T19:55:57.894Z,95.10
2019-01-18T19:58:50.053Z,95.50
2019-01-18T20:01:51.046Z,95.40
2019-01-18T20:04:54.213Z,95.40
2019-01-18T20:08:00.177Z,95.40
2019-01-18T20:11:22.437Z,95.10
2019-01-18T20:14:31.933Z,94.70
2019-01-18T20:17:40.728Z,94.30
2019-01-18T20:20:49.030Z,94.50
2019-01-18T20:23:57.585Z,94.70
2019-01-18T20:27:12.866Z,94.60
2019-01-18T20:30:14.869Z,94.70
2019-01-18T20:33:19.600Z,94.60
2019-01-18T20:36:25.427Z,94.60
2019-01-18T20:39:45.137Z,94.70
2019-01-18T20:42:36.205Z,94.60
2019-01-18T20:45:33.853Z,94.60
2019-01-18T20:49:01.108Z,94.60
2019-01-18T20:52:01.357Z,94.70
2019-01-18T20:55:37.773Z,94.70
2019-01-18T20:58:40.574Z,94.60
2019-01-18T21:01:49.761Z,94.70
2019-01-18T21:04:49.541Z,94.80
2019-01-18T21:07:54.602Z,94.90
2019-01-18T21:10:35.549Z,95.10
2019-01-18T21:13:37.562Z,95.30
2019-01-18T21:16:48.876Z,95.30
2019-01-18T21:20:19.441Z,95.30
2019-01-18T21:23:36.625Z,95.20
2019-01-18T21:26:31.050Z,95.40
2019-01-18T21:29:27.693Z,95.40
2019-01-18T21:32:20.453Z,95.40
2019-01-18T21:35:28.951Z,95.40
2019-01-18T21:38:44.217Z,95.40
2019-01-18T21:41:21.829Z,95.90
2019-01-18T21:44:28.339Z,95.70
2019-01-18T21:47:48.578Z,95.80
2019-01-18T21:51:03.344Z,96.10
2019-01-18T21:54:12.833Z,96.40
2019-01-18T21:57:16.742Z,96.60
2019-01-18T22:00:16.035Z,96.90
2019-01-18T22:03:17.585Z,97.00
2019-01-18T22:06:10.308Z,97.00
2019-01-18T22:09:25.490Z,96.90
2019-01-18T22:12:42.739Z,96.80
2019-01-18T22:15:36.324Z,96.80
2019-01-18T22:18:39.401Z,97.00
2019-01-18T22:21:35.250Z,97.10
2019-01-18T22:24:27.773Z,97.10
2019-01-18T22:27:23.173Z,97.20
2019-01-18T22:30:30.117Z,97.10
2019-01-18T22:33:39.699Z,97.10
2019-01-18T22:36:37.638Z,97.00
2019-01-18T22:39:26.842Z,96.90
2019-01-18T22:42:43.533Z,96.80
2019-01-18T22:45:43.713Z,96.70
2019-01-18T22:48:34.733Z,96.80
2019-01-18T22:51:53.018Z,96.70
2019-01-18T22:54:49.816Z,96.80
2019-01-18T22:58:23.546Z,96.80
2019-01-18T23:01:35.638Z,97.00
2019-01-18T23:04:46.929Z,97.20
2019-01-18T23:07:58.248Z,97.50
2019-01-18T23:10:52.626Z,97.20
2019-01-18T23:14:23.521Z,96.90
2019-01-18T23:17:57.377Z,96.90
2019-01-18T23:21:00.606Z,96.80
2019-01-18T23:24:05.436Z,96.80
2019-01-18T23:27:05.091Z,96.80
2019-01-18T23:29:50.809Z,96.70
2019-01-18T23:33:09.217Z,96.70
2019-01-18T23:36:10.829Z,96.60
2019-01-18T23:39:41.461Z,96.40
2019-01-18T23:42:31.604Z,96.50
2019-01-18T23:45:21.922Z,97.00
2019-01-18T23:48:18.457Z,97.10
2019-01-18T23:51:11.297Z,97.10
2019-01-18T23:53:57.037Z,97.20
2019-01-18T23:56:35.636Z,97.10
2019-01-18T23:59:29.614Z,96.90
